sensor_id;sensor_type;location;lat;lon;timestamp;temperature;humidity
26278;DHT22;14000;52.056;8.510;2023-07-16T00:01:57;20.00;99.90
26278;DHT22;14000;52.056;8.510;2023-07-16T00:04:23;20.00;99.90
26278;DHT22;14000;52.056;8.510;2023-07-16T00:06:49;19.90;99.90
26278;DHT22;14000;52.056;8.510;2023-07-16T00:09:15;19.90;99.90
26278;DHT22;14000;52.056;8.510;2023-07-16T00:11:40;19.90;99.90
26278;DHT22;14000;52.056;8.510;2023-07-16T00:14:06;19.90;99.90
26278;DHT22;14000;52.056;8.510;2023-07-16T00:16:32;19.80;99.90
26278;DHT22;14000;52.056;8.510;2023-07-16T00:18:57;19.80;99.90
26278;DHT22;14000;52.056;8.510;2023-07-16T00:21:24;19.70;99.90
26278;DHT22;14000;52.056;8.510;2023-07-16T00:23:49;19.80;99.90
26278;DHT22;14000;52.056;8.510;2023-07-16T00:26:15;19.80;99.90
26278;DHT22;14000;52.056;8.510;2023-07-16T00:28:41;19.70;99.90
26278;DHT22;14000;52.056;8.510;2023-07-16T00:31:06;19.80;99.90
26278;DHT22;14000;52.056;8.510;2023-07-16T00:33:32;19.70;99.90
26278;DHT22;14000;52.056;8.510;2023-07-16T00:35:57;19.80;99.90
26278;DHT22;14000;52.056;8.510;2023-07-16T00:38:23;19.80;99.90
26278;DHT22;14000;52.056;8.510;2023-07-16T00:40:48;19.80;99.90
26278;DHT22;14000;52.056;8.510;2023-07-16T00:43:14;19.80;99.90
26278;DHT22;14000;52.056;8.510;2023-07-16T00:45:41;19.80;99.90
26278;DHT22;14000;52.056;8.510;2023-07-16T00:48:08;19.80;99.90
26278;DHT22;14000;52.056;8.510;2023-07-16T00:50:35;19.90;99.90
26278;DHT22;14000;52.056;8.510;2023-07-16T00:53:08;19.90;99.90
26278;DHT22;14000;52.056;8.510;2023-07-16T00:55:36;19.90;99.90
26278;DHT22;14000;52.056;8.510;2023-07-16T00:58:05;19.90;99.90
26278;DHT22;14000;52.056;8.510;2023-07-16T01:00:35;19.90;99.90
26278;DHT22;14000;52.056;8.510;2023-07-16T01:03:02;19.80;99.90
26278;DHT22;14000;52.056;8.510;2023-07-16T01:05:34;19.80;99.90
26278;DHT22;14000;52.056;8.510;2023-07-16T01:08:04;19.80;99.90
26278;DHT22;14000;52.056;8.510;2023-07-16T01:10:31;19.80;99.90
26278;DHT22;14000;52.056;8.510;2023-07-16T01:12:57;19.80;99.90
26278;DHT22;14000;52.056;8.510;2023-07-16T01:15:23;19.80;99.90
26278;DHT22;14000;52.056;8.510;2023-07-16T01:17:49;19.70;99.90
26278;DHT22;14000;52.056;8.510;2023-07-16T01:20:15;19.80;99.90
26278;DHT22;14000;52.056;8.510;2023-07-16T01:23:01;19.70;99.90
26278;DHT22;14000;52.056;8.510;2023-07-16T01:25:48;19.70;99.90
26278;DHT22;14000;52.056;8.510;2023-07-16T01:31:01;19.70;99.90
26278;DHT22;14000;52.056;8.510;2023-07-16T01:33:27;19.70;99.90
26278;DHT22;14000;52.056;8.510;2023-07-16T01:35:53;19.70;99.90
26278;DHT22;14000;52.056;8.510;2023-07-16T01:38:19;19.70;99.90
26278;DHT22;14000;52.056;8.510;2023-07-16T01:40:47;19.60;99.90
26278;DHT22;14000;52.056;8.510;2023-07-16T01:43:12;19.60;99.90
26278;DHT22;14000;52.056;8.510;2023-07-16T01:45:38;19.60;99.90
26278;DHT22;14000;52.056;8.510;2023-07-16T01:48:34;19.50;99.90
26278;DHT22;14000;52.056;8.510;2023-07-16T01:51:01;19.50;99.90
26278;DHT22;14000;52.056;8.510;2023-07-16T01:53:27;19.50;99.90
26278;DHT22;14000;52.056;8.510;2023-07-16T01:55:53;19.50;99.90
26278;DHT22;14000;52.056;8.510;2023-07-16T01:58:18;19.50;99.90
26278;DHT22;14000;52.056;8.510;2023-07-16T02:00:44;19.40;99.90
26278;DHT22;14000;52.056;8.510;2023-07-16T02:03:10;19.40;99.90
26278;DHT22;14000;52.056;8.510;2023-07-16T02:05:35;19.40;99.90
26278;DHT22;14000;52.056;8.510;2023-07-16T02:08:01;19.30;99.90
26278;DHT22;14000;52.056;8.510;2023-07-16T02:10:26;19.30;99.90
26278;DHT22;14000;52.056;8.510;2023-07-16T02:12:52;19.30;99.90
26278;DHT22;14000;52.056;8.510;2023-07-16T02:15:19;19.30;99.90
26278;DHT22;14000;52.056;8.510;2023-07-16T02:17:44;19.30;99.90
26278;DHT22;14000;52.056;8.510;2023-07-16T02:20:10;19.20;99.90
26278;DHT22;14000;52.056;8.510;2023-07-16T02:22:36;19.20;99.90
26278;DHT22;14000;52.056;8.510;2023-07-16T02:25:02;19.20;99.90
26278;DHT22;14000;52.056;8.510;2023-07-16T02:27:28;19.20;99.90
26278;DHT22;14000;52.056;8.510;2023-07-16T02:29:54;19.20;99.90
26278;DHT22;14000;52.056;8.510;2023-07-16T02:32:20;19.10;99.90
26278;DHT22;14000;52.056;8.510;2023-07-16T02:34:45;19.10;99.90
26278;DHT22;14000;52.056;8.510;2023-07-16T02:37:11;19.10;99.90
26278;DHT22;14000;52.056;8.510;2023-07-16T02:39:38;19.00;99.90
26278;DHT22;14000;52.056;8.510;2023-07-16T02:42:03;19.00;99.90
26278;DHT22;14000;52.056;8.510;2023-07-16T02:44:30;19.00;99.90
26278;DHT22;14000;52.056;8.510;2023-07-16T02:46:55;18.90;99.90
26278;DHT22;14000;52.056;8.510;2023-07-16T02:49:21;18.90;99.90
26278;DHT22;14000;52.056;8.510;2023-07-16T02:51:47;18.90;99.90
26278;DHT22;14000;52.056;8.510;2023-07-16T02:54:12;18.90;99.90
26278;DHT22;14000;52.056;8.510;2023-07-16T02:56:38;18.90;99.90
26278;DHT22;14000;52.056;8.510;2023-07-16T02:59:03;18.80;99.90
26278;DHT22;14000;52.056;8.510;2023-07-16T03:01:29;18.80;99.90
26278;DHT22;14000;52.056;8.510;2023-07-16T03:03:55;18.80;99.90
26278;DHT22;14000;52.056;8.510;2023-07-16T03:06:20;18.80;99.90
26278;DHT22;14000;52.056;8.510;2023-07-16T03:08:46;18.70;99.90
26278;DHT22;14000;52.056;8.510;2023-07-16T03:11:11;18.60;99.90
26278;DHT22;14000;52.056;8.510;2023-07-16T03:13:37;18.60;99.90
26278;DHT22;14000;52.056;8.510;2023-07-16T03:16:03;18.60;99.90
26278;DHT22;14000;52.056;8.510;2023-07-16T03:18:29;18.60;99.90
26278;DHT22;14000;52.056;8.510;2023-07-16T03:20:56;18.50;99.90
26278;DHT22;14000;52.056;8.510;2023-07-16T03:23:22;18.50;99.90
26278;DHT22;14000;52.056;8.510;2023-07-16T03:25:48;18.50;99.90
26278;DHT22;14000;52.056;8.510;2023-07-16T03:28:13;18.40;99.90
26278;DHT22;14000;52.056;8.510;2023-07-16T03:30:39;18.40;99.90
26278;DHT22;14000;52.056;8.510;2023-07-16T03:33:05;18.40;99.90
26278;DHT22;14000;52.056;8.510;2023-07-16T03:35:30;18.40;99.90
26278;DHT22;14000;52.056;8.510;2023-07-16T03:37:56;18.40;99.90
26278;DHT22;14000;52.056;8.510;2023-07-16T03:40:24;18.30;99.90
26278;DHT22;14000;52.056;8.510;2023-07-16T03:42:50;18.30;99.90
26278;DHT22;14000;52.056;8.510;2023-07-16T03:45:16;18.30;99.90
26278;DHT22;14000;52.056;8.510;2023-07-16T03:47:42;18.30;99.90
26278;DHT22;14000;52.056;8.510;2023-07-16T03:50:08;18.20;99.90
26278;DHT22;14000;52.056;8.510;2023-07-16T03:52:34;18.20;99.90
26278;DHT22;14000;52.056;8.510;2023-07-16T03:54:59;18.20;99.90
26278;DHT22;14000;52.056;8.510;2023-07-16T03:57:29;18.20;99.90
26278;DHT22;14000;52.056;8.510;2023-07-16T03:59:55;18.20;99.90
26278;DHT22;14000;52.056;8.510;2023-07-16T04:02:21;18.20;99.90
26278;DHT22;14000;52.056;8.510;2023-07-16T04:04:46;18.20;99.90
26278;DHT22;14000;52.056;8.510;2023-07-16T04:07:12;18.10;99.90
26278;DHT22;14000;52.056;8.510;2023-07-16T04:09:38;18.10;99.90
26278;DHT22;14000;52.056;8.510;2023-07-16T04:12:05;18.20;99.90
26278;DHT22;14000;52.056;8.510;2023-07-16T04:14:31;18.10;99.90
26278;DHT22;14000;52.056;8.510;2023-07-16T04:16:57;18.20;99.90
26278;DHT22;14000;52.056;8.510;2023-07-16T04:19:22;18.10;99.90
26278;DHT22;14000;52.056;8.510;2023-07-16T04:21:48;18.10;99.90
26278;DHT22;14000;52.056;8.510;2023-07-16T04:24:13;18.10;99.90
26278;DHT22;14000;52.056;8.510;2023-07-16T04:26:39;18.10;99.90
26278;DHT22;14000;52.056;8.510;2023-07-16T04:29:04;18.10;99.90
26278;DHT22;14000;52.056;8.510;2023-07-16T04:31:30;18.20;99.90
26278;DHT22;14000;52.056;8.510;2023-07-16T04:33:56;18.10;99.90
26278;DHT22;14000;52.056;8.510;2023-07-16T04:36:21;18.10;99.90
26278;DHT22;14000;52.056;8.510;2023-07-16T04:38:47;18.20;99.90
26278;DHT22;14000;52.056;8.510;2023-07-16T04:41:12;18.20;99.90
26278;DHT22;14000;52.056;8.510;2023-07-16T04:43:38;18.20;99.90
26278;DHT22;14000;52.056;8.510;2023-07-16T04:46:04;18.20;99.90
26278;DHT22;14000;52.056;8.510;2023-07-16T04:48:29;18.30;99.90
26278;DHT22;14000;52.056;8.510;2023-07-16T04:50:55;18.30;99.90
26278;DHT22;14000;52.056;8.510;2023-07-16T04:53:22;18.30;99.90
26278;DHT22;14000;52.056;8.510;2023-07-16T04:55:48;18.40;99.90
26278;DHT22;14000;52.056;8.510;2023-07-16T04:58:13;18.30;99.90
26278;DHT22;14000;52.056;8.510;2023-07-16T05:00:39;18.40;99.90
26278;DHT22;14000;52.056;8.510;2023-07-16T05:03:04;18.30;99.90
26278;DHT22;14000;52.056;8.510;2023-07-16T05:05:30;18.40;99.90
26278;DHT22;14000;52.056;8.510;2023-07-16T05:07:56;18.40;99.90
26278;DHT22;14000;52.056;8.510;2023-07-16T05:10:21;18.40;99.90
26278;DHT22;14000;52.056;8.510;2023-07-16T05:12:47;18.50;99.90
26278;DHT22;14000;52.056;8.510;2023-07-16T05:15:12;18.50;99.90
26278;DHT22;14000;52.056;8.510;2023-07-16T05:17:38;18.60;99.90
26278;DHT22;14000;52.056;8.510;2023-07-16T05:20:05;18.60;99.90
26278;DHT22;14000;52.056;8.510;2023-07-16T05:22:32;18.70;99.90
26278;DHT22;14000;52.056;8.510;2023-07-16T05:24:58;18.70;99.90
26278;DHT22;14000;52.056;8.510;2023-07-16T05:27:23;18.70;99.90
26278;DHT22;14000;52.056;8.510;2023-07-16T05:29:49;18.70;99.90
26278;DHT22;14000;52.056;8.510;2023-07-16T05:32:14;18.80;99.90
26278;DHT22;14000;52.056;8.510;2023-07-16T05:34:40;18.90;99.90
26278;DHT22;14000;52.056;8.510;2023-07-16T05:37:05;18.80;99.90
26278;DHT22;14000;52.056;8.510;2023-07-16T05:39:31;18.90;99.90
26278;DHT22;14000;52.056;8.510;2023-07-16T05:41:57;18.90;99.90
26278;DHT22;14000;52.056;8.510;2023-07-16T05:44:22;18.90;99.90
26278;DHT22;14000;52.056;8.510;2023-07-16T05:46:48;19.00;99.90
26278;DHT22;14000;52.056;8.510;2023-07-16T05:49:14;19.00;99.90
26278;DHT22;14000;52.056;8.510;2023-07-16T05:51:39;19.10;99.90
26278;DHT22;14000;52.056;8.510;2023-07-16T05:54:05;19.10;99.90
26278;DHT22;14000;52.056;8.510;2023-07-16T05:56:31;19.20;99.90
26278;DHT22;14000;52.056;8.510;2023-07-16T05:58:57;19.10;99.90
26278;DHT22;14000;52.056;8.510;2023-07-16T06:01:23;19.10;99.90
26278;DHT22;14000;52.056;8.510;2023-07-16T06:03:49;19.20;99.90
26278;DHT22;14000;52.056;8.510;2023-07-16T06:06:14;19.20;99.90
26278;DHT22;14000;52.056;8.510;2023-07-16T06:08:40;19.20;99.90
26278;DHT22;14000;52.056;8.510;2023-07-16T06:11:05;19.20;99.90
26278;DHT22;14000;52.056;8.510;2023-07-16T06:13:31;19.10;99.90
26278;DHT22;14000;52.056;8.510;2023-07-16T06:15:57;19.10;99.90
26278;DHT22;14000;52.056;8.510;2023-07-16T06:18:22;19.20;99.90
26278;DHT22;14000;52.056;8.510;2023-07-16T06:20:48;19.20;99.90
26278;DHT22;14000;52.056;8.510;2023-07-16T06:23:14;19.20;99.90
26278;DHT22;14000;52.056;8.510;2023-07-16T06:25:42;19.20;99.90
26278;DHT22;14000;52.056;8.510;2023-07-16T06:28:12;19.30;99.90
26278;DHT22;14000;52.056;8.510;2023-07-16T06:30:37;19.30;99.90
26278;DHT22;14000;52.056;8.510;2023-07-16T06:33:03;19.40;99.90
26278;DHT22;14000;52.056;8.510;2023-07-16T06:35:29;19.40;99.90
26278;DHT22;14000;52.056;8.510;2023-07-16T06:37:54;19.40;99.90
26278;DHT22;14000;52.056;8.510;2023-07-16T06:40:20;19.40;99.90
26278;DHT22;14000;52.056;8.510;2023-07-16T06:42:45;19.40;99.90
26278;DHT22;14000;52.056;8.510;2023-07-16T06:45:11;19.40;99.90
26278;DHT22;14000;52.056;8.510;2023-07-16T06:47:36;19.40;99.90
26278;DHT22;14000;52.056;8.510;2023-07-16T06:50:02;19.40;99.90
26278;DHT22;14000;52.056;8.510;2023-07-16T06:52:31;19.40;99.90
26278;DHT22;14000;52.056;8.510;2023-07-16T06:54:57;19.40;99.90
26278;DHT22;14000;52.056;8.510;2023-07-16T06:57:23;19.50;99.90
26278;DHT22;14000;52.056;8.510;2023-07-16T06:59:49;19.50;99.90
26278;DHT22;14000;52.056;8.510;2023-07-16T07:02:16;19.60;99.90
26278;DHT22;14000;52.056;8.510;2023-07-16T07:04:42;19.60;99.90
26278;DHT22;14000;52.056;8.510;2023-07-16T07:07:07;19.70;99.90
26278;DHT22;14000;52.056;8.510;2023-07-16T07:09:33;19.90;99.90
26278;DHT22;14000;52.056;8.510;2023-07-16T07:11:58;19.90;99.90
26278;DHT22;14000;52.056;8.510;2023-07-16T07:14:24;19.80;99.90
26278;DHT22;14000;52.056;8.510;2023-07-16T07:16:50;19.80;99.90
26278;DHT22;14000;52.056;8.510;2023-07-16T07:19:15;19.80;99.90
26278;DHT22;14000;52.056;8.510;2023-07-16T07:21:41;19.80;99.90
26278;DHT22;14000;52.056;8.510;2023-07-16T07:24:06;19.80;99.90
26278;DHT22;14000;52.056;8.510;2023-07-16T07:26:32;19.80;99.90
26278;DHT22;14000;52.056;8.510;2023-07-16T07:28:58;19.80;99.90
26278;DHT22;14000;52.056;8.510;2023-07-16T07:31:23;19.80;99.90
26278;DHT22;14000;52.056;8.510;2023-07-16T07:33:49;19.70;99.90
26278;DHT22;14000;52.056;8.510;2023-07-16T07:36:14;19.80;99.90
26278;DHT22;14000;52.056;8.510;2023-07-16T07:38:40;19.80;99.90
26278;DHT22;14000;52.056;8.510;2023-07-16T07:41:06;19.90;99.90
26278;DHT22;14000;52.056;8.510;2023-07-16T07:43:32;19.90;99.90
26278;DHT22;14000;52.056;8.510;2023-07-16T07:45:57;20.00;99.90
26278;DHT22;14000;52.056;8.510;2023-07-16T07:48:23;20.10;99.90
26278;DHT22;14000;52.056;8.510;2023-07-16T07:50:49;20.20;99.90
26278;DHT22;14000;52.056;8.510;2023-07-16T07:53:14;20.30;99.90
26278;DHT22;14000;52.056;8.510;2023-07-16T07:55:40;20.40;99.90
26278;DHT22;14000;52.056;8.510;2023-07-16T07:58:07;20.30;99.90
26278;DHT22;14000;52.056;8.510;2023-07-16T08:00:33;20.30;99.90
26278;DHT22;14000;52.056;8.510;2023-07-16T08:02:59;20.40;99.90
26278;DHT22;14000;52.056;8.510;2023-07-16T08:05:24;20.40;99.90
26278;DHT22;14000;52.056;8.510;2023-07-16T08:07:50;20.50;99.90
26278;DHT22;14000;52.056;8.510;2023-07-16T08:10:17;20.50;99.90
26278;DHT22;14000;52.056;8.510;2023-07-16T08:12:42;20.50;99.90
26278;DHT22;14000;52.056;8.510;2023-07-16T08:15:10;20.70;99.90
26278;DHT22;14000;52.056;8.510;2023-07-16T08:17:40;20.70;99.90
26278;DHT22;14000;52.056;8.510;2023-07-16T08:20:06;20.80;99.90
26278;DHT22;14000;52.056;8.510;2023-07-16T08:22:32;20.80;99.90
26278;DHT22;14000;52.056;8.510;2023-07-16T08:24:57;20.70;99.90
26278;DHT22;14000;52.056;8.510;2023-07-16T08:27:23;20.60;99.90
26278;DHT22;14000;52.056;8.510;2023-07-16T08:29:49;20.60;99.90
26278;DHT22;14000;52.056;8.510;2023-07-16T08:32:14;20.50;99.90
26278;DHT22;14000;52.056;8.510;2023-07-16T08:34:40;20.60;99.90
26278;DHT22;14000;52.056;8.510;2023-07-16T08:37:05;20.60;99.90
26278;DHT22;14000;52.056;8.510;2023-07-16T08:39:31;20.60;99.90
26278;DHT22;14000;52.056;8.510;2023-07-16T08:41:57;20.70;99.90
26278;DHT22;14000;52.056;8.510;2023-07-16T08:44:23;20.70;99.90
26278;DHT22;14000;52.056;8.510;2023-07-16T08:46:50;20.60;99.90
26278;DHT22;14000;52.056;8.510;2023-07-16T08:49:18;20.60;99.90
26278;DHT22;14000;52.056;8.510;2023-07-16T08:51:48;20.60;99.90
26278;DHT22;14000;52.056;8.510;2023-07-16T08:54:14;20.60;99.90
26278;DHT22;14000;52.056;8.510;2023-07-16T08:56:43;20.80;99.90
26278;DHT22;14000;52.056;8.510;2023-07-16T08:59:10;20.90;99.90
26278;DHT22;14000;52.056;8.510;2023-07-16T09:01:37;21.00;99.90
26278;DHT22;14000;52.056;8.510;2023-07-16T09:04:03;21.00;99.90
26278;DHT22;14000;52.056;8.510;2023-07-16T09:06:28;21.20;99.90
26278;DHT22;14000;52.056;8.510;2023-07-16T09:08:54;21.40;99.90
26278;DHT22;14000;52.056;8.510;2023-07-16T09:11:21;21.50;99.90
26278;DHT22;14000;52.056;8.510;2023-07-16T09:13:48;21.50;99.90
26278;DHT22;14000;52.056;8.510;2023-07-16T09:16:13;21.40;99.90
26278;DHT22;14000;52.056;8.510;2023-07-16T09:18:42;21.30;99.90
26278;DHT22;14000;52.056;8.510;2023-07-16T09:21:08;21.30;99.90
26278;DHT22;14000;52.056;8.510;2023-07-16T09:23:34;21.30;99.90
26278;DHT22;14000;52.056;8.510;2023-07-16T09:26:00;21.40;99.90
26278;DHT22;14000;52.056;8.510;2023-07-16T09:28:26;21.60;99.90
26278;DHT22;14000;52.056;8.510;2023-07-16T09:30:52;21.50;99.90
26278;DHT22;14000;52.056;8.510;2023-07-16T09:33:18;21.60;99.90
26278;DHT22;14000;52.056;8.510;2023-07-16T09:35:47;21.50;99.90
26278;DHT22;14000;52.056;8.510;2023-07-16T09:38:12;21.50;99.90
26278;DHT22;14000;52.056;8.510;2023-07-16T09:40:39;21.50;99.90
26278;DHT22;14000;52.056;8.510;2023-07-16T09:43:08;21.50;99.90
26278;DHT22;14000;52.056;8.510;2023-07-16T09:45:34;21.40;99.90
26278;DHT22;14000;52.056;8.510;2023-07-16T09:48:00;21.30;99.90
26278;DHT22;14000;52.056;8.510;2023-07-16T09:50:28;21.40;99.90
26278;DHT22;14000;52.056;8.510;2023-07-16T09:52:56;21.40;99.90
26278;DHT22;14000;52.056;8.510;2023-07-16T09:55:23;21.50;99.90
26278;DHT22;14000;52.056;8.510;2023-07-16T09:57:50;21.60;99.90
26278;DHT22;14000;52.056;8.510;2023-07-16T10:00:17;21.80;99.90
26278;DHT22;14000;52.056;8.510;2023-07-16T10:02:44;21.80;99.90
26278;DHT22;14000;52.056;8.510;2023-07-16T10:05:17;21.90;99.90
26278;DHT22;14000;52.056;8.510;2023-07-16T10:08:17;22.00;99.90
26278;DHT22;14000;52.056;8.510;2023-07-16T10:10:44;22.10;99.90
26278;DHT22;14000;52.056;8.510;2023-07-16T10:13:12;22.10;99.90
26278;DHT22;14000;52.056;8.510;2023-07-16T10:15:39;21.90;99.90
26278;DHT22;14000;52.056;8.510;2023-07-16T10:18:05;21.80;99.90
26278;DHT22;14000;52.056;8.510;2023-07-16T10:20:34;21.70;99.90
26278;DHT22;14000;52.056;8.510;2023-07-16T10:23:16;21.80;99.90
26278;DHT22;14000;52.056;8.510;2023-07-16T10:26:01;21.90;99.90
26278;DHT22;14000;52.056;8.510;2023-07-16T10:28:31;22.00;99.90
26278;DHT22;14000;52.056;8.510;2023-07-16T10:30:57;22.20;99.90
26278;DHT22;14000;52.056;8.510;2023-07-16T10:33:22;22.30;99.90
26278;DHT22;14000;52.056;8.510;2023-07-16T10:35:48;22.40;99.90
26278;DHT22;14000;52.056;8.510;2023-07-16T10:38:14;22.50;99.90
26278;DHT22;14000;52.056;8.510;2023-07-16T10:40:43;22.50;99.90
26278;DHT22;14000;52.056;8.510;2023-07-16T10:43:10;22.60;99.90
26278;DHT22;14000;52.056;8.510;2023-07-16T10:45:36;22.80;99.90
26278;DHT22;14000;52.056;8.510;2023-07-16T10:48:02;23.00;99.90
26278;DHT22;14000;52.056;8.510;2023-07-16T10:50:28;23.00;99.90
26278;DHT22;14000;52.056;8.510;2023-07-16T10:52:55;23.00;99.90
26278;DHT22;14000;52.056;8.510;2023-07-16T10:55:21;23.00;99.90
26278;DHT22;14000;52.056;8.510;2023-07-16T10:57:48;23.10;99.90
26278;DHT22;14000;52.056;8.510;2023-07-16T11:00:15;23.20;99.90
26278;DHT22;14000;52.056;8.510;2023-07-16T11:02:42;23.30;99.90
26278;DHT22;14000;52.056;8.510;2023-07-16T11:05:13;23.40;99.90
26278;DHT22;14000;52.056;8.510;2023-07-16T11:07:49;23.60;99.90
26278;DHT22;14000;52.056;8.510;2023-07-16T11:10:18;23.80;99.90
26278;DHT22;14000;52.056;8.510;2023-07-16T11:12:51;24.00;99.90
26278;DHT22;14000;52.056;8.510;2023-07-16T11:15:17;24.20;99.90
26278;DHT22;14000;52.056;8.510;2023-07-16T11:17:48;24.70;99.90
26278;DHT22;14000;52.056;8.510;2023-07-16T11:20:15;25.60;99.90
26278;DHT22;14000;52.056;8.510;2023-07-16T11:22:41;26.70;99.90
26278;DHT22;14000;52.056;8.510;2023-07-16T11:25:12;27.50;99.90
26278;DHT22;14000;52.056;8.510;2023-07-16T11:27:41;28.10;99.90
26278;DHT22;14000;52.056;8.510;2023-07-16T11:30:07;28.50;99.90
26278;DHT22;14000;52.056;8.510;2023-07-16T11:32:35;28.30;99.90
26278;DHT22;14000;52.056;8.510;2023-07-16T11:35:02;28.40;99.90
26278;DHT22;14000;52.056;8.510;2023-07-16T11:37:30;27.90;99.90
26278;DHT22;14000;52.056;8.510;2023-07-16T11:40:04;27.40;99.90
26278;DHT22;14000;52.056;8.510;2023-07-16T11:42:32;28.00;99.90
26278;DHT22;14000;52.056;8.510;2023-07-16T11:44:58;27.80;99.90
26278;DHT22;14000;52.056;8.510;2023-07-16T11:47:25;27.90;99.90
26278;DHT22;14000;52.056;8.510;2023-07-16T11:49:51;28.00;99.90
26278;DHT22;14000;52.056;8.510;2023-07-16T11:52:27;27.40;99.90
26278;DHT22;14000;52.056;8.510;2023-07-16T11:54:55;26.80;99.90
26278;DHT22;14000;52.056;8.510;2023-07-16T11:57:21;26.00;99.90
26278;DHT22;14000;52.056;8.510;2023-07-16T11:59:47;25.50;99.90
26278;DHT22;14000;52.056;8.510;2023-07-16T12:02:13;25.40;99.90
26278;DHT22;14000;52.056;8.510;2023-07-16T12:04:39;25.20;99.90
26278;DHT22;14000;52.056;8.510;2023-07-16T12:07:04;25.40;99.90
26278;DHT22;14000;52.056;8.510;2023-07-16T12:09:30;25.20;99.90
26278;DHT22;14000;52.056;8.510;2023-07-16T12:11:56;25.60;99.90
26278;DHT22;14000;52.056;8.510;2023-07-16T12:14:21;26.40;99.90
26278;DHT22;14000;52.056;8.510;2023-07-16T12:16:47;26.40;99.90
26278;DHT22;14000;52.056;8.510;2023-07-16T12:19:13;26.00;99.90
26278;DHT22;14000;52.056;8.510;2023-07-16T12:21:38;26.00;99.90
26278;DHT22;14000;52.056;8.510;2023-07-16T12:24:04;25.90;99.90
26278;DHT22;14000;52.056;8.510;2023-07-16T12:26:30;26.10;99.90
26278;DHT22;14000;52.056;8.510;2023-07-16T12:28:55;26.30;99.90
26278;DHT22;14000;52.056;8.510;2023-07-16T12:31:21;26.30;99.90
26278;DHT22;14000;52.056;8.510;2023-07-16T12:33:47;26.20;99.90
26278;DHT22;14000;52.056;8.510;2023-07-16T12:36:13;25.90;99.90
26278;DHT22;14000;52.056;8.510;2023-07-16T12:38:39;25.50;99.90
26278;DHT22;14000;52.056;8.510;2023-07-16T12:41:05;25.20;99.90
26278;DHT22;14000;52.056;8.510;2023-07-16T12:43:31;24.90;99.90
26278;DHT22;14000;52.056;8.510;2023-07-16T12:46:03;24.60;99.90
26278;DHT22;14000;52.056;8.510;2023-07-16T12:48:29;24.50;99.90
26278;DHT22;14000;52.056;8.510;2023-07-16T12:50:55;24.40;99.90
26278;DHT22;14000;52.056;8.510;2023-07-16T12:53:21;24.60;99.90
26278;DHT22;14000;52.056;8.510;2023-07-16T12:55:47;24.90;99.90
26278;DHT22;14000;52.056;8.510;2023-07-16T12:58:13;25.30;99.90
26278;DHT22;14000;52.056;8.510;2023-07-16T13:00:38;25.70;99.90
26278;DHT22;14000;52.056;8.510;2023-07-16T13:03:05;25.80;99.90
26278;DHT22;14000;52.056;8.510;2023-07-16T13:05:30;25.70;99.90
26278;DHT22;14000;52.056;8.510;2023-07-16T13:07:56;25.50;99.90
26278;DHT22;14000;52.056;8.510;2023-07-16T13:10:22;25.30;99.90
26278;DHT22;14000;52.056;8.510;2023-07-16T13:12:48;25.00;99.90
26278;DHT22;14000;52.056;8.510;2023-07-16T13:15:14;25.20;99.90
26278;DHT22;14000;52.056;8.510;2023-07-16T13:17:39;25.20;99.90
26278;DHT22;14000;52.056;8.510;2023-07-16T13:20:05;25.00;99.90
26278;DHT22;14000;52.056;8.510;2023-07-16T13:22:32;25.00;99.90
26278;DHT22;14000;52.056;8.510;2023-07-16T13:24:57;24.90;99.90
26278;DHT22;14000;52.056;8.510;2023-07-16T13:27:23;24.70;99.90
26278;DHT22;14000;52.056;8.510;2023-07-16T13:29:49;24.60;99.90
26278;DHT22;14000;52.056;8.510;2023-07-16T13:32:15;24.40;99.90
26278;DHT22;14000;52.056;8.510;2023-07-16T13:34:41;24.50;99.90
26278;DHT22;14000;52.056;8.510;2023-07-16T13:37:07;24.70;99.90
26278;DHT22;14000;52.056;8.510;2023-07-16T13:39:32;24.80;99.90
26278;DHT22;14000;52.056;8.510;2023-07-16T13:41:58;24.90;99.90
26278;DHT22;14000;52.056;8.510;2023-07-16T13:44:23;25.00;99.90
26278;DHT22;14000;52.056;8.510;2023-07-16T13:46:49;25.00;99.90
26278;DHT22;14000;52.056;8.510;2023-07-16T13:49:14;25.10;99.90
26278;DHT22;14000;52.056;8.510;2023-07-16T13:51:40;25.10;99.90
26278;DHT22;14000;52.056;8.510;2023-07-16T13:54:05;25.10;99.90
26278;DHT22;14000;52.056;8.510;2023-07-16T13:56:31;25.10;99.90
26278;DHT22;14000;52.056;8.510;2023-07-16T13:58:57;25.00;99.90
26278;DHT22;14000;52.056;8.510;2023-07-16T14:01:24;24.70;99.90
26278;DHT22;14000;52.056;8.510;2023-07-16T14:03:49;24.60;99.90
26278;DHT22;14000;52.056;8.510;2023-07-16T14:06:15;24.70;99.90
26278;DHT22;14000;52.056;8.510;2023-07-16T14:08:40;24.80;99.90
26278;DHT22;14000;52.056;8.510;2023-07-16T14:11:06;24.80;99.90
26278;DHT22;14000;52.056;8.510;2023-07-16T14:13:31;24.90;99.90
26278;DHT22;14000;52.056;8.510;2023-07-16T14:15:57;25.10;99.90
26278;DHT22;14000;52.056;8.510;2023-07-16T14:18:23;25.20;99.90
26278;DHT22;14000;52.056;8.510;2023-07-16T14:20:49;25.20;99.90
26278;DHT22;14000;52.056;8.510;2023-07-16T14:23:14;25.40;99.90
26278;DHT22;14000;52.056;8.510;2023-07-16T14:25:40;25.40;99.90
26278;DHT22;14000;52.056;8.510;2023-07-16T14:28:06;25.40;99.90
26278;DHT22;14000;52.056;8.510;2023-07-16T14:30:32;25.40;99.90
26278;DHT22;14000;52.056;8.510;2023-07-16T14:32:57;25.40;99.90
26278;DHT22;14000;52.056;8.510;2023-07-16T14:35:24;25.50;99.90
26278;DHT22;14000;52.056;8.510;2023-07-16T14:37:50;25.60;99.90
26278;DHT22;14000;52.056;8.510;2023-07-16T14:40:16;25.70;99.90
26278;DHT22;14000;52.056;8.510;2023-07-16T14:42:43;25.80;99.90
26278;DHT22;14000;52.056;8.510;2023-07-16T14:45:09;26.00;99.90
26278;DHT22;14000;52.056;8.510;2023-07-16T14:47:34;26.00;99.90
26278;DHT22;14000;52.056;8.510;2023-07-16T14:50:00;25.80;99.90
26278;DHT22;14000;52.056;8.510;2023-07-16T14:52:25;25.70;99.90
26278;DHT22;14000;52.056;8.510;2023-07-16T14:54:51;25.60;99.90
26278;DHT22;14000;52.056;8.510;2023-07-16T14:57:17;25.40;99.90
26278;DHT22;14000;52.056;8.510;2023-07-16T14:59:42;25.40;99.90
26278;DHT22;14000;52.056;8.510;2023-07-16T15:02:08;25.30;99.90
26278;DHT22;14000;52.056;8.510;2023-07-16T15:04:34;25.30;99.90
26278;DHT22;14000;52.056;8.510;2023-07-16T15:07:00;25.20;99.90
26278;DHT22;14000;52.056;8.510;2023-07-16T15:09:25;25.20;99.90
26278;DHT22;14000;52.056;8.510;2023-07-16T15:11:51;25.10;99.90
26278;DHT22;14000;52.056;8.510;2023-07-16T15:14:16;25.10;99.90
26278;DHT22;14000;52.056;8.510;2023-07-16T15:16:42;25.30;99.90
26278;DHT22;14000;52.056;8.510;2023-07-16T15:19:08;25.20;99.90
26278;DHT22;14000;52.056;8.510;2023-07-16T15:21:35;25.00;99.90
26278;DHT22;14000;52.056;8.510;2023-07-16T15:24:03;24.90;99.90
26278;DHT22;14000;52.056;8.510;2023-07-16T15:26:29;24.80;99.90
26278;DHT22;14000;52.056;8.510;2023-07-16T15:28:55;24.60;99.90